Time;durP1;ratioP1;P1;durP2;ratioP2;P2;SDS_P1;SDS_P2;PMS_P1;PMS_P2;Temp;Humidity;BMP_temperature;BMP_pressure;BME280_temperature;BME280_humidity;BME280_pressure;Samples;Min_cycle;Max_cycle;Signal;HPM_P1;HPM_P2
2021/05/19 00:01:38;;;;;;;3.50;1.25;;;7.00;99.90;;;;;;5006114;28;20043;-86
2021/05/19 00:04:06;;;;;;;2.25;0.90;;;7.00;99.90;;;;;;4989779;28;20026;-85
2021/05/19 00:06:32;;;;;;;2.17;1.02;;;7.00;99.90;;;;;;4989656;28;20102;-83
2021/05/19 00:08:58;;;;;;;3.10;1.25;;;7.00;99.90;;;;;;5006740;28;20046;-86
2021/05/19 00:11:24;;;;;;;2.63;1.52;;;6.90;99.90;;;;;;5008036;28;20062;-86
2021/05/19 00:13:50;;;;;;;3.28;1.23;;;6.90;99.90;;;;;;5006814;28;20065;-86
2021/05/19 00:16:17;;;;;;;4.90;1.30;;;6.90;99.90;;;;;;5007045;28;20034;-85
2021/05/19 00:18:42;;;;;;;2.97;1.17;;;6.90;99.90;;;;;;5006854;28;20034;-85
2021/05/19 00:21:09;;;;;;;3.17;1.40;;;6.80;99.90;;;;;;5006791;28;20045;-86
2021/05/19 00:23:35;;;;;;;5.13;1.80;;;6.80;99.90;;;;;;5006730;28;20041;-85
2021/05/19 00:26:01;;;;;;;2.28;1.20;;;6.80;99.90;;;;;;5005319;28;20034;-85
2021/05/19 00:28:27;;;;;;;2.83;1.33;;;6.80;99.90;;;;;;5006724;28;20030;-85
2021/05/19 00:30:56;;;;;;;4.63;2.08;;;6.80;99.90;;;;;;4989282;28;20030;-86
2021/05/19 00:33:23;;;;;;;3.30;1.60;;;6.80;99.90;;;;;;5006609;28;20133;-86
2021/05/19 00:35:49;;;;;;;3.60;1.33;;;6.70;99.90;;;;;;5006471;28;20034;-85
2021/05/19 00:38:15;;;;;;;5.05;1.60;;;6.70;99.90;;;;;;5006669;28;20040;-84
2021/05/19 00:40:41;;;;;;;3.22;1.67;;;6.70;99.90;;;;;;4989273;28;20073;-85
2021/05/19 00:43:07;;;;;;;3.25;1.67;;;6.70;99.90;;;;;;4988877;28;20026;-83
2021/05/19 00:45:32;;;;;;;4.40;1.73;;;6.60;99.90;;;;;;5006492;28;20042;-85
2021/05/19 00:47:59;;;;;;;4.03;1.48;;;6.60;99.90;;;;;;4988805;28;20041;-86
2021/05/19 00:50:30;;;;;;;2.42;1.30;;;6.50;99.90;;;;;;5006526;28;20036;-85
2021/05/19 00:52:57;;;;;;;2.15;1.40;;;6.60;99.90;;;;;;4988990;28;20038;-86
2021/05/19 00:55:24;;;;;;;2.55;1.35;;;6.60;99.90;;;;;;5006292;28;20034;-85
2021/05/19 00:57:53;;;;;;;4.30;1.20;;;6.60;99.90;;;;;;5004911;28;20041;-85
2021/05/19 01:00:23;;;;;;;4.22;1.48;;;6.60;99.90;;;;;;4988849;28;20045;-84
2021/05/19 01:02:56;;;;;;;5.90;1.30;;;6.70;99.90;;;;;;4988949;28;20061;-85
2021/05/19 01:05:42;;;;;;;2.40;0.98;;;6.70;99.90;;;;;;5006141;28;20082;-84
2021/05/19 01:11:08;;;;;;;1.67;0.80;;;6.80;99.90;;;;;;4988900;28;20026;-85
2021/05/19 01:13:39;;;;;;;3.28;0.80;;;6.90;99.90;;;;;;5006106;28;20031;-84
2021/05/19 01:16:05;;;;;;;2.75;1.30;;;6.60;99.90;;;;;;5006408;28;20049;-83
2021/05/19 01:18:31;;;;;;;4.05;1.23;;;6.50;99.90;;;;;;5006357;28;20030;-84
2021/05/19 01:20:59;;;;;;;3.80;1.13;;;6.60;99.90;;;;;;5006147;28;20050;-85
2021/05/19 01:23:29;;;;;;;2.42;1.10;;;6.70;99.90;;;;;;5007031;28;20073;-86
2021/05/19 01:25:55;;;;;;;1.60;0.98;;;6.70;99.90;;;;;;5007372;28;20030;-86
2021/05/19 01:28:21;;;;;;;1.83;1.00;;;6.70;99.90;;;;;;4990077;28;20030;-86
2021/05/19 01:30:47;;;;;;;2.45;1.30;;;6.70;99.90;;;;;;4989049;28;20065;-85
2021/05/19 01:33:13;;;;;;;3.05;1.10;;;6.70;99.90;;;;;;4988686;28;20026;-86
2021/05/19 01:35:39;;;;;;;2.67;1.40;;;6.70;99.90;;;;;;4988824;28;20042;-86
2021/05/19 01:38:09;;;;;;;3.85;1.00;;;6.70;99.90;;;;;;4988871;28;20030;-86
2021/05/19 01:40:36;;;;;;;2.97;1.33;;;6.80;99.90;;;;;;4988674;28;20049;-85
2021/05/19 01:43:02;;;;;;;2.00;1.02;;;6.90;99.90;;;;;;4988617;28;20027;-85
2021/05/19 01:45:49;;;;;;;5.25;1.58;;;7.00;99.90;;;;;;4988755;28;20121;-86
2021/05/19 01:48:19;;;;;;;3.78;1.63;;;7.00;99.90;;;;;;4988843;28;20026;-86
2021/05/19 01:50:48;;;;;;;2.42;1.33;;;7.10;99.90;;;;;;4988771;28;20034;-85
2021/05/19 01:53:14;;;;;;;2.45;1.15;;;7.20;99.90;;;;;;5005948;28;20030;-84
2021/05/19 01:55:40;;;;;;;2.03;1.25;;;7.10;99.90;;;;;;4988717;28;20053;-85
2021/05/19 01:58:08;;;;;;;2.97;1.50;;;7.10;99.90;;;;;;4988424;28;20038;-87
2021/05/19 02:00:34;;;;;;;2.58;1.67;;;7.10;99.90;;;;;;4990984;28;20045;-86
2021/05/19 02:03:05;;;;;;;3.60;1.73;;;7.10;99.90;;;;;;4991914;28;20030;-85
2021/05/19 02:05:37;;;;;;;3.65;1.65;;;7.20;99.90;;;;;;4991766;28;20045;-86
2021/05/19 02:08:05;;;;;;;3.03;1.98;;;7.30;99.90;;;;;;4992064;28;20042;-85
2021/05/19 02:10:36;;;;;;;2.92;1.67;;;7.30;99.90;;;;;;4992308;28;20092;-87
2021/05/19 02:13:07;;;;;;;4.63;1.50;;;7.30;99.90;;;;;;4991496;28;20029;-85
2021/05/19 02:15:34;;;;;;;3.47;2.10;;;7.30;99.90;;;;;;4975767;28;20030;-84
2021/05/19 02:18:01;;;;;;;4.32;1.98;;;7.30;99.90;;;;;;5007879;28;20031;-85
2021/05/19 02:20:29;;;;;;;3.45;2.03;;;7.20;99.90;;;;;;4991529;28;20050;-85
2021/05/19 02:22:56;;;;;;;3.15;2.00;;;7.20;99.90;;;;;;5007905;28;20030;-76
2021/05/19 02:25:23;;;;;;;4.13;2.33;;;7.10;99.90;;;;;;5008851;28;20031;-85
2021/05/19 02:27:51;;;;;;;4.65;2.20;;;7.20;99.90;;;;;;4991375;28;20027;-84
2021/05/19 02:30:22;;;;;;;5.85;2.40;;;7.10;99.90;;;;;;4991475;28;20046;-84
2021/05/19 02:32:49;;;;;;;6.57;3.17;;;7.00;99.90;;;;;;5008804;28;20039;-85
2021/05/19 02:35:17;;;;;;;4.57;2.75;;;6.90;99.90;;;;;;5007712;28;20033;-86
2021/05/19 02:38:18;;;;;;;4.88;2.63;;;6.90;99.90;;;;;;5042906;23;20505;-85
2021/05/19 02:41:02;;;;;;;4.07;2.67;;;6.90;99.90;;;;;;4975840;28;20050;-85
2021/05/19 02:43:28;;;;;;;4.68;2.20;;;6.80;99.90;;;;;;4991320;28;20053;-85
2021/05/19 02:45:54;;;;;;;6.63;3.22;;;6.80;99.90;;;;;;4975149;28;20038;-83
2021/05/19 02:48:20;;;;;;;5.43;3.08;;;6.80;99.90;;;;;;4991368;28;20031;-85
2021/05/19 02:50:46;;;;;;;6.85;3.67;;;6.80;99.90;;;;;;4975223;28;20061;-85
2021/05/19 02:53:11;;;;;;;4.75;3.33;;;6.80;99.90;;;;;;4991129;28;20394;-84
2021/05/19 02:55:37;;;;;;;6.15;3.25;;;6.80;99.90;;;;;;5008540;28;20037;-86
2021/05/19 02:58:02;;;;;;;6.32;3.35;;;6.90;99.90;;;;;;5008573;28;20026;-85
2021/05/19 03:00:28;;;;;;;5.07;3.70;;;6.90;99.90;;;;;;5008737;28;20092;-85
2021/05/19 03:03:04;;;;;;;7.35;4.13;;;6.80;99.90;;;;;;4975468;28;20026;-85
2021/05/19 03:05:29;;;;;;;6.25;3.80;;;6.80;99.90;;;;;;4974932;28;20038;-84
2021/05/19 03:07:56;;;;;;;6.50;3.90;;;6.80;99.90;;;;;;4990663;28;20030;-85
2021/05/19 03:10:22;;;;;;;5.32;3.70;;;6.80;99.90;;;;;;5007698;28;20034;-85
2021/05/19 03:12:50;;;;;;;5.05;4.50;;;6.80;99.90;;;;;;5004180;28;20046;-85
2021/05/19 03:15:17;;;;;;;8.43;4.78;;;6.90;99.90;;;;;;4988695;28;20030;-85
2021/05/19 03:17:42;;;;;;;6.20;4.53;;;6.90;99.90;;;;;;4987296;28;20098;-85
2021/05/19 03:20:09;;;;;;;6.60;5.38;;;6.90;99.90;;;;;;4988640;28;20042;-82
2021/05/19 03:22:34;;;;;;;8.15;4.85;;;6.90;99.90;;;;;;4987175;28;20038;-86
2021/05/19 03:25:00;;;;;;;7.38;5.10;;;6.90;99.90;;;;;;4987261;28;20054;-85
2021/05/19 03:27:26;;;;;;;7.80;4.97;;;6.80;99.90;;;;;;4988259;28;20026;-86
2021/05/19 03:29:51;;;;;;;7.40;5.18;;;6.80;99.90;;;;;;4988212;28;20050;-86
2021/05/19 03:32:17;;;;;;;5.57;4.45;;;6.80;99.90;;;;;;4988234;28;20027;-86
2021/05/19 03:34:43;;;;;;;8.20;5.53;;;6.80;99.90;;;;;;4988032;28;20034;-86
2021/05/19 03:37:08;;;;;;;6.63;4.82;;;6.80;99.90;;;;;;4970753;28;20051;-85
2021/05/19 03:39:34;;;;;;;7.00;5.45;;;6.80;99.90;;;;;;4988420;28;20069;-85
2021/05/19 03:42:00;;;;;;;6.68;4.85;;;6.80;99.90;;;;;;4970651;28;20034;-86
2021/05/19 03:44:26;;;;;;;6.72;4.75;;;6.80;99.90;;;;;;4988018;28;20031;-87
2021/05/19 03:46:53;;;;;;;7.20;4.95;;;6.80;99.90;;;;;;4987698;28;20039;-86
2021/05/19 03:49:19;;;;;;;7.38;5.47;;;6.80;99.90;;;;;;4988077;28;20034;-86
2021/05/19 03:51:45;;;;;;;6.93;5.75;;;6.80;99.90;;;;;;4987911;28;20041;-86
2021/05/19 03:54:10;;;;;;;7.07;5.00;;;6.80;99.90;;;;;;4987540;28;20027;-85
2021/05/19 03:56:37;;;;;;;7.55;4.97;;;6.90;99.90;;;;;;4987456;28;20063;-84
2021/05/19 03:59:03;;;;;;;6.57;5.22;;;6.90;99.90;;;;;;4987354;28;20403;-86
2021/05/19 04:01:29;;;;;;;5.32;4.75;;;7.00;99.90;;;;;;4986987;28;20053;-86
2021/05/19 04:03:54;;;;;;;6.53;4.97;;;6.90;99.90;;;;;;4986893;28;20027;-86
2021/05/19 04:06:22;;;;;;;5.28;4.32;;;7.00;99.90;;;;;;4987142;28;20414;-85
2021/05/19 04:08:48;;;;;;;7.38;5.78;;;7.10;99.90;;;;;;4969934;28;20054;-85
2021/05/19 04:11:14;;;;;;;6.10;4.82;;;7.20;99.90;;;;;;4987184;28;20035;-85
2021/05/19 04:13:39;;;;;;;8.30;5.55;;;7.40;99.90;;;;;;4997707;28;20498;-86
2021/05/19 04:16:06;;;;;;;11.55;7.65;;;7.40;99.90;;;;;;5006438;28;20026;-86
2021/05/19 04:18:32;;;;;;;7.05;6.30;;;7.50;99.90;;;;;;5006613;28;20030;-84
2021/05/19 04:20:58;;;;;;;7.47;6.57;;;7.60;99.90;;;;;;5006350;28;20038;-86
2021/05/19 04:23:26;;;;;;;8.02;6.88;;;7.60;99.90;;;;;;5005573;28;20029;-86
2021/05/19 04:25:53;;;;;;;10.13;7.50;;;7.70;99.90;;;;;;4990508;28;20050;-81
2021/05/19 04:28:20;;;;;;;8.50;7.28;;;7.70;99.90;;;;;;4986871;28;20050;-86
2021/05/19 04:30:46;;;;;;;9.35;7.65;;;7.70;99.90;;;;;;4975789;28;20037;-88
2021/05/19 04:33:14;;;;;;;9.27;7.53;;;7.90;99.90;;;;;;4969447;28;20031;-88
2021/05/19 04:35:40;;;;;;;12.18;8.20;;;7.90;99.90;;;;;;4969564;28;20042;-86
2021/05/19 04:38:05;;;;;;;11.02;8.82;;;7.90;99.90;;;;;;4981864;28;20149;-83
2021/05/19 04:40:31;;;;;;;12.15;9.05;;;8.00;99.90;;;;;;4966066;28;20043;-83
2021/05/19 04:42:57;;;;;;;10.25;9.10;;;8.00;99.90;;;;;;4965915;29;20047;-84
2021/05/19 04:45:23;;;;;;;11.38;10.05;;;8.00;99.90;;;;;;4982198;28;20058;-84
2021/05/19 04:47:49;;;;;;;11.15;8.93;;;8.10;99.90;;;;;;4966899;29;20124;-83
2021/05/19 04:50:14;;;;;;;9.88;8.73;;;8.10;99.90;;;;;;4985166;28;20039;-84
2021/05/19 04:52:40;;;;;;;11.55;9.40;;;8.10;99.90;;;;;;4985283;28;20031;-82
2021/05/19 04:55:07;;;;;;;9.35;8.32;;;8.20;99.90;;;;;;4983170;28;20383;-84
2021/05/19 04:57:33;;;;;;;10.45;8.20;;;8.20;99.90;;;;;;4977882;28;20443;-86
2021/05/19 04:59:59;;;;;;;9.65;8.30;;;8.20;99.90;;;;;;4982007;28;20047;-85
2021/05/19 05:02:25;;;;;;;8.88;7.70;;;8.20;99.90;;;;;;4967371;29;20049;-84
2021/05/19 05:05:18;;;;;;;8.45;7.57;;;8.30;99.90;;;;;;4976900;28;20023;-84
2021/05/19 05:07:44;;;;;;;7.20;6.53;;;8.30;99.90;;;;;;4941200;29;20157;-84
2021/05/19 05:10:11;;;;;;;8.98;7.30;;;8.30;99.90;;;;;;4945140;29;20032;-84
2021/05/19 05:12:38;;;;;;;7.30;6.32;;;8.40;99.90;;;;;;4945324;29;20036;-84
2021/05/19 05:15:06;;;;;;;8.32;6.63;;;8.40;99.90;;;;;;4945099;29;20059;-85
2021/05/19 05:17:32;;;;;;;8.50;6.55;;;8.50;99.90;;;;;;4944990;29;20096;-83
2021/05/19 05:19:58;;;;;;;7.68;6.88;;;8.60;99.90;;;;;;4929305;29;20049;-85
2021/05/19 05:22:23;;;;;;;7.20;6.28;;;8.60;99.90;;;;;;4942227;29;20039;-84
2021/05/19 05:24:49;;;;;;;7.65;5.68;;;8.60;99.90;;;;;;4945149;29;20047;-84
2021/05/19 05:27:15;;;;;;;8.68;6.40;;;8.60;99.90;;;;;;4945052;29;20589;-84
2021/05/19 05:29:40;;;;;;;7.15;5.95;;;8.70;99.90;;;;;;4929189;29;20087;-86
2021/05/19 05:32:07;;;;;;;6.32;5.72;;;8.90;99.90;;;;;;4945319;29;20048;-85
2021/05/19 05:34:33;;;;;;;7.50;5.70;;;8.90;99.90;;;;;;4947545;29;20071;-85
2021/05/19 05:37:00;;;;;;;5.57;3.67;;;8.90;99.90;;;;;;4948457;29;20056;-85
2021/05/19 05:39:26;;;;;;;5.57;5.07;;;9.00;99.90;;;;;;4948945;29;20043;-85
2021/05/19 05:41:51;;;;;;;8.82;6.30;;;9.00;99.90;;;;;;4917013;29;20039;-83
2021/05/19 05:44:17;;;;;;;6.88;5.63;;;9.10;99.90;;;;;;4949463;28;20471;-85
2021/05/19 05:46:43;;;;;;;7.90;4.85;;;9.10;99.90;;;;;;4988249;28;20101;-86
2021/05/19 05:49:08;;;;;;;7.78;6.57;;;9.20;99.90;;;;;;4989390;28;20038;-86
2021/05/19 05:51:34;;;;;;;7.18;6.40;;;9.20;99.90;;;;;;4988262;28;20046;-84
2021/05/19 05:54:00;;;;;;;10.05;6.70;;;9.30;99.90;;;;;;4989126;28;20045;-84
2021/05/19 05:56:26;;;;;;;8.02;6.63;;;9.30;99.90;;;;;;4989477;28;20031;-85
2021/05/19 05:58:51;;;;;;;12.48;8.25;;;9.40;99.90;;;;;;4984226;28;20120;-85
2021/05/19 06:01:17;;;;;;;9.30;7.45;;;9.40;99.90;;;;;;4967797;29;20093;-80
2021/05/19 06:03:43;;;;;;;7.97;7.18;;;9.40;99.90;;;;;;4969675;29;20062;-83
2021/05/19 06:06:08;;;;;;;7.90;7.10;;;9.50;99.90;;;;;;4954600;28;20063;-85
2021/05/19 06:08:34;;;;;;;7.78;6.40;;;9.60;99.90;;;;;;4970252;28;20041;-83
2021/05/19 06:11:04;;;;;;;12.88;8.80;;;9.70;99.90;;;;;;4968636;29;20042;-84
2021/05/19 06:13:29;;;;;;;8.13;6.25;;;9.60;99.90;;;;;;4993769;28;20027;-82
2021/05/19 06:15:55;;;;;;;13.70;8.90;;;9.70;99.90;;;;;;4989116;28;20026;-84
2021/05/19 06:18:20;;;;;;;8.73;7.68;;;9.70;99.90;;;;;;4988924;28;20045;-81
2021/05/19 06:20:46;;;;;;;8.90;6.72;;;9.80;99.90;;;;;;4989298;28;20043;-84
2021/05/19 06:23:12;;;;;;;9.85;7.18;;;9.80;99.90;;;;;;5004021;28;20059;-84
2021/05/19 06:25:37;;;;;;;10.15;8.10;;;9.90;99.90;;;;;;4975113;28;20038;-84
2021/05/19 06:28:03;;;;;;;11.73;8.13;;;9.90;99.90;;;;;;4969777;29;20031;-85
2021/05/19 06:30:28;;;;;;;10.23;7.85;;;9.90;99.90;;;;;;4969675;28;20027;-85
2021/05/19 06:32:54;;;;;;;13.13;8.18;;;10.00;99.90;;;;;;4969705;29;20058;-85
2021/05/19 06:35:20;;;;;;;9.32;7.35;;;9.90;99.90;;;;;;4968135;29;20059;-83
2021/05/19 06:37:45;;;;;;;9.77;6.53;;;10.40;99.90;;;;;;4979381;28;20055;-85
2021/05/19 06:40:11;;;;;;;8.75;7.82;;;11.00;99.90;;;;;;4971299;28;20058;-84
2021/05/19 06:42:38;;;;;;;10.52;7.57;;;11.40;99.90;;;;;;4971503;28;20054;-84
2021/05/19 06:45:04;;;;;;;9.98;7.45;;;11.40;99.90;;;;;;4987888;28;20035;-85
2021/05/19 06:47:31;;;;;;;10.07;7.55;;;11.20;99.90;;;;;;4988816;28;20034;-85
2021/05/19 06:49:58;;;;;;;11.25;7.32;;;11.50;99.90;;;;;;4971040;28;20062;-84
2021/05/19 06:52:23;;;;;;;11.30;8.00;;;11.30;99.90;;;;;;4988416;28;20038;-82
2021/05/19 06:54:49;;;;;;;12.75;8.90;;;11.50;99.90;;;;;;4988193;28;20031;-83
2021/05/19 06:57:15;;;;;;;10.70;7.88;;;11.40;99.90;;;;;;4988386;28;20114;-84
2021/05/19 06:59:40;;;;;;;12.90;7.53;;;11.30;99.90;;;;;;4988360;28;20088;-84
2021/05/19 07:02:06;;;;;;;6.47;5.00;;;11.20;99.90;;;;;;4988413;28;20066;-85
2021/05/19 07:04:32;;;;;;;14.75;8.48;;;11.40;99.90;;;;;;4988186;28;20031;-83
2021/05/19 07:07:00;;;;;;;12.40;8.20;;;11.60;99.90;;;;;;4987762;28;20111;-84
2021/05/19 07:09:26;;;;;;;9.00;6.68;;;11.90;99.90;;;;;;4988059;28;20027;-85
2021/05/19 07:11:53;;;;;;;12.65;8.30;;;12.30;99.90;;;;;;4988046;28;20035;-84
2021/05/19 07:14:19;;;;;;;13.20;9.05;;;12.50;99.90;;;;;;5003766;28;20040;-84
2021/05/19 07:16:53;;;;;;;13.55;9.07;;;12.60;99.90;;;;;;4989669;28;20422;-85
2021/05/19 07:19:20;;;;;;;17.95;10.95;;;12.40;99.90;;;;;;5007329;28;20034;-83
2021/05/19 07:21:46;;;;;;;11.50;9.75;;;12.20;99.90;;;;;;4989475;28;20038;-83
2021/05/19 07:24:12;;;;;;;12.90;7.93;;;12.20;99.90;;;;;;4987226;28;20470;-84
2021/05/19 07:26:42;;;;;;;18.35;11.88;;;12.20;99.90;;;;;;4987694;28;20399;-82
2021/05/19 07:29:09;;;;;;;17.23;11.50;;;12.00;99.90;;;;;;4987620;28;20034;-83
2021/05/19 07:31:35;;;;;;;13.05;7.35;;;12.40;99.90;;;;;;4987521;28;20042;-83
2021/05/19 07:34:02;;;;;;;19.95;13.57;;;12.40;99.90;;;;;;4987673;28;20034;-83
2021/05/19 07:36:28;;;;;;;20.67;14.40;;;11.90;99.90;;;;;;4987262;28;20039;-84
2021/05/19 07:38:55;;;;;;;20.00;13.98;;;11.70;99.90;;;;;;4987386;28;20085;-84
2021/05/19 07:41:22;;;;;;;21.75;14.05;;;11.60;99.90;;;;;;4987577;28;20070;-83
2021/05/19 07:43:47;;;;;;;21.48;13.32;;;11.50;99.90;;;;;;4969925;28;20109;-82
2021/05/19 07:46:13;;;;;;;24.25;13.73;;;11.40;99.90;;;;;;4986384;28;20039;-83
2021/05/19 07:48:39;;;;;;;20.13;12.50;;;11.60;99.90;;;;;;4986297;28;20039;-83
2021/05/19 07:51:05;;;;;;;19.48;10.65;;;12.00;99.90;;;;;;4969793;28;20043;-83
2021/05/19 07:53:31;;;;;;;19.33;12.38;;;12.10;99.90;;;;;;4986237;28;20030;-83
2021/05/19 07:56:00;;;;;;;18.40;12.48;;;12.10;99.90;;;;;;4969789;28;20051;-83
2021/05/19 07:58:31;;;;;;;21.42;12.63;;;12.10;99.90;;;;;;4969011;28;20062;-83
2021/05/19 08:03:38;;;;;;;20.85;13.38;;;12.30;99.90;;;;;;4969638;28;20061;-83
2021/05/19 08:06:04;;;;;;;21.17;12.88;;;12.20;99.90;;;;;;4987466;28;20034;-81
2021/05/19 08:08:30;;;;;;;18.50;11.93;;;12.20;99.90;;;;;;4987304;28;20030;-83
2021/05/19 08:10:56;;;;;;;21.35;14.02;;;12.20;99.90;;;;;;4987206;28;20035;-85
2021/05/19 08:13:21;;;;;;;23.40;13.60;;;12.20;99.90;;;;;;4994910;28;20086;-84
2021/05/19 08:15:47;;;;;;;22.80;14.48;;;12.50;99.90;;;;;;5006408;28;20030;-84
2021/05/19 08:18:13;;;;;;;16.10;11.20;;;12.80;99.90;;;;;;5006245;28;20089;-84
2021/05/19 08:20:39;;;;;;;18.10;12.82;;;12.70;99.90;;;;;;5006365;28;20038;-82
2021/05/19 08:23:05;;;;;;;21.33;14.38;;;12.60;99.90;;;;;;5004605;28;20625;-82
2021/05/19 08:25:31;;;;;;;19.40;13.88;;;12.70;99.90;;;;;;4993282;28;20027;-83
2021/05/19 08:27:57;;;;;;;20.23;13.15;;;13.20;99.90;;;;;;4985321;28;20027;-83
2021/05/19 08:30:23;;;;;;;19.35;13.52;;;13.40;99.90;;;;;;4986722;28;20114;-82
2021/05/19 08:32:48;;;;;;;14.70;10.93;;;13.60;99.90;;;;;;4969117;28;20069;-84
2021/05/19 08:35:14;;;;;;;17.58;12.85;;;14.00;99.90;;;;;;4986582;28;20031;-82
2021/05/19 08:37:40;;;;;;;17.65;12.18;;;14.10;99.90;;;;;;4986238;28;20050;-83
2021/05/19 08:40:07;;;;;;;16.05;11.70;;;14.30;99.90;;;;;;4969003;28;20062;-84
2021/05/19 08:42:34;;;;;;;19.25;10.70;;;14.50;99.90;;;;;;4969002;28;20038;-81
2021/05/19 08:45:00;;;;;;;20.25;13.15;;;14.20;99.90;;;;;;4969073;28;20058;-84
2021/05/19 08:47:26;;;;;;;19.38;10.68;;;13.80;99.90;;;;;;4986557;28;20027;-82
2021/05/19 08:49:52;;;;;;;13.70;9.75;;;13.80;99.90;;;;;;4986315;28;20034;-85
2021/05/19 08:52:19;;;;;;;14.50;11.23;;;13.90;99.90;;;;;;4985119;28;20066;-84
2021/05/19 08:54:45;;;;;;;21.58;11.60;;;13.90;99.90;;;;;;4969192;28;20046;-85
2021/05/19 08:57:11;;;;;;;22.90;10.32;;;13.50;99.90;;;;;;4986231;28;20027;-84
2021/05/19 08:59:38;;;;;;;11.77;9.50;;;13.50;99.90;;;;;;4985240;28;20042;-83
2021/05/19 09:02:12;;;;;;;17.23;12.13;;;13.40;99.90;;;;;;4985473;28;20035;-83
2021/05/19 09:04:37;;;;;;;19.98;14.27;;;12.90;99.90;;;;;;4986489;28;20098;-82
2021/05/19 09:07:04;;;;;;;19.58;11.07;;;13.00;99.90;;;;;;4984819;28;20065;-83
2021/05/19 09:09:38;;;;;;;14.65;9.10;;;13.10;99.90;;;;;;4971677;28;20030;-82
2021/05/19 09:12:08;;;;;;;17.40;11.82;;;13.20;99.90;;;;;;4972788;28;20062;-83
2021/05/19 09:14:40;;;;;;;18.45;13.18;;;13.20;99.90;;;;;;4990887;28;20089;-85
2021/05/19 09:17:25;;;;;;;21.65;14.20;;;13.10;99.90;;;;;;5010146;28;20026;-84
2021/05/19 09:20:04;;;;;;;21.42;12.77;;;12.90;99.90;;;;;;5010138;28;20041;-85
2021/05/19 09:22:32;;;;;;;19.45;11.10;;;13.00;99.90;;;;;;5009565;28;20479;-84
2021/05/19 09:25:00;;;;;;;13.45;10.15;;;13.90;99.90;;;;;;4999701;28;20026;-86
2021/05/19 09:27:38;;;;;;;19.50;10.00;;;14.10;99.90;;;;;;4989938;28;20039;-85
2021/05/19 09:30:04;;;;;;;14.10;8.35;;;14.20;99.90;;;;;;4990010;28;20035;-84
2021/05/19 09:32:37;;;;;;;10.77;7.95;;;14.40;99.90;;;;;;4972348;28;20026;-82
2021/05/19 09:35:03;;;;;;;13.52;8.80;;;14.50;99.90;;;;;;4989674;28;20046;-80
2021/05/19 09:37:30;;;;;;;12.02;8.05;;;15.10;99.90;;;;;;4989580;28;20130;-85
2021/05/19 09:39:58;;;;;;;9.75;7.35;;;15.60;99.90;;;;;;4971920;28;20045;-83
2021/05/19 09:42:26;;;;;;;11.60;8.07;;;15.90;99.90;;;;;;4989613;28;20329;-84
2021/05/19 09:44:55;;;;;;;13.85;8.02;;;15.80;99.90;;;;;;4989699;28;20035;-83
2021/05/19 09:47:39;;;;;;;12.77;7.03;;;16.20;99.90;;;;;;4972336;28;20030;-84
2021/05/19 09:50:06;;;;;;;11.60;8.50;;;15.60;99.90;;;;;;4988322;28;20050;-84
2021/05/19 09:52:32;;;;;;;18.70;9.70;;;15.30;99.90;;;;;;4989432;28;20030;-83
2021/05/19 09:55:05;;;;;;;11.45;8.23;;;16.00;99.90;;;;;;4972000;28;20046;-84
2021/05/19 09:57:44;;;;;;;10.43;6.05;;;16.70;99.90;;;;;;4989387;28;20054;-81
2021/05/19 10:00:12;;;;;;;14.50;8.57;;;17.10;99.90;;;;;;4989184;28;20054;-86
2021/05/19 10:02:40;;;;;;;11.77;8.23;;;17.40;99.90;;;;;;4971872;28;20030;-85
2021/05/19 10:05:46;;;;;;;10.98;8.77;;;16.70;99.90;;;;;;4988981;28;20030;-83
2021/05/19 10:08:13;;;;;;;8.00;7.20;;;15.80;99.90;;;;;;4967323;29;20039;-82
2021/05/19 10:10:39;;;;;;;15.98;10.18;;;15.50;99.90;;;;;;4967418;29;20035;-81
2021/05/19 10:13:07;;;;;;;13.63;9.32;;;14.80;99.90;;;;;;4957058;28;20569;-85
2021/05/19 10:15:35;;;;;;;12.48;9.10;;;14.30;99.90;;;;;;4954627;28;20042;-84
2021/05/19 10:18:22;;;;;;;9.23;8.07;;;14.10;99.90;;;;;;4970055;28;20046;-83
2021/05/19 10:20:54;;;;;;;11.25;8.48;;;13.70;99.90;;;;;;4985574;28;20126;-82
2021/05/19 10:23:24;;;;;;;10.13;8.25;;;13.70;99.90;;;;;;4986120;28;20034;-82
2021/05/19 10:25:49;;;;;;;9.77;8.18;;;13.70;99.90;;;;;;4970819;28;20139;-81
2021/05/19 10:28:16;;;;;;;9.63;6.65;;;13.60;99.90;;;;;;4966847;29;20039;-83
2021/05/19 10:30:46;;;;;;;11.98;8.77;;;13.60;99.90;;;;;;4950802;29;20139;-82
2021/05/19 10:33:27;;;;;;;13.30;8.40;;;13.50;99.90;;;;;;4950593;29;20042;-82
2021/05/19 10:35:54;;;;;;;9.68;7.68;;;13.10;99.90;;;;;;4950658;29;20038;-82
2021/05/19 10:38:24;;;;;;;8.05;6.18;;;12.70;99.90;;;;;;4966659;29;20179;-84
2021/05/19 10:40:53;;;;;;;;;;;12.90;99.90;;;;;;4951398;29;20042;-85
2021/05/19 10:43:20;;;;;;;6.35;4.55;;;13.00;99.90;;;;;;4967042;29;19917;-84
2021/05/19 10:45:52;;;;;;;7.53;4.97;;;13.00;99.90;;;;;;4964651;29;20042;-84
2021/05/19 10:48:28;;;;;;;7.88;5.95;;;13.10;99.90;;;;;;4967958;29;20027;-83
2021/05/19 10:51:04;;;;;;;7.15;5.50;;;13.20;99.90;;;;;;4967993;29;20055;-84
2021/05/19 10:59:15;;;;;;;9.05;5.57;;;14.40;99.90;;;;;;4967578;29;20058;-82
2021/05/19 11:01:42;;;;;;;6.72;5.15;;;15.10;99.90;;;;;;4983683;28;20108;-82
2021/05/19 11:04:15;;;;;;;6.53;5.30;;;15.60;99.90;;;;;;4968550;28;20098;-83
2021/05/19 11:06:56;;;;;;;10.50;7.47;;;16.20;99.90;;;;;;4968584;28;20067;-83
2021/05/19 11:09:23;;;;;;;9.10;5.88;;;16.40;99.90;;;;;;4968434;29;20027;-82
2021/05/19 11:11:49;;;;;;;11.60;6.60;;;16.60;99.90;;;;;;4968409;29;20035;-82
2021/05/19 11:14:36;;;;;;;8.55;7.28;;;16.60;99.90;;;;;;4983430;28;20038;-83
2021/05/19 11:17:12;;;;;;;9.43;5.85;;;16.70;99.90;;;;;;4986517;28;20034;-83
2021/05/19 11:19:39;;;;;;;2.88;2.25;;;15.00;99.90;;;;;;4987838;28;20109;-83
2021/05/19 11:22:07;;;;;;;1.20;0.20;;;13.30;99.90;;;;;;4986366;28;20049;-84
2021/05/19 11:24:53;;;;;;;0.30;0.10;;;11.90;99.90;;;;;;4982574;28;20106;-80
2021/05/19 11:27:21;;;;;;;0.38;0.00;;;11.30;99.90;;;;;;4967255;29;20027;-82
2021/05/19 11:29:47;;;;;;;0.15;0.00;;;11.20;99.90;;;;;;4968220;28;20027;-82
2021/05/19 11:32:35;;;;;;;0.80;0.00;;;10.70;99.90;;;;;;4968330;28;20118;-84
2021/05/19 11:35:15;;;;;;;0.52;0.10;;;10.20;99.90;;;;;;4968111;28;20024;-85
2021/05/19 11:37:56;;;;;;;0.40;0.10;;;9.80;99.90;;;;;;4966831;29;20047;-82
2021/05/19 11:40:22;;;;;;;1.20;0.10;;;9.70;99.90;;;;;;4966757;29;20071;-80
2021/05/19 11:42:55;;;;;;;0.25;0.10;;;9.50;99.90;;;;;;4966722;29;20039;-84
2021/05/19 11:45:26;;;;;;;0.20;0.00;;;9.50;99.90;;;;;;4966926;29;20032;-82
2021/05/19 11:47:52;;;;;;;1.13;0.10;;;9.50;99.90;;;;;;4966849;29;20035;-82
2021/05/19 11:50:24;;;;;;;0.30;0.10;;;9.40;99.90;;;;;;4966472;29;20483;-82
2021/05/19 11:53:10;;;;;;;0.47;0.10;;;9.50;99.90;;;;;;4966555;29;20452;-82
2021/05/19 11:55:47;;;;;;;0.38;0.10;;;9.50;99.90;;;;;;4982731;28;20043;-85
2021/05/19 11:58:17;;;;;;;1.00;0.08;;;9.50;99.90;;;;;;4968188;28;20030;-83
2021/05/19 12:01:04;;;;;;;0.30;0.10;;;9.50;99.90;;;;;;4967627;28;20043;-83
2021/05/19 12:03:31;;;;;;;0.50;0.00;;;9.50;99.90;;;;;;4966558;29;20038;-83
2021/05/19 12:06:08;;;;;;;0.38;0.10;;;9.40;99.90;;;;;;4967449;28;20038;-83
2021/05/19 12:08:39;;;;;;;0.55;0.10;;;9.50;99.90;;;;;;4982742;28;20035;-83
2021/05/19 12:11:14;;;;;;;0.32;0.10;;;9.50;99.90;;;;;;4982359;28;20031;-81
2021/05/19 12:13:42;;;;;;;0.25;0.10;;;9.50;99.90;;;;;;4977053;28;20046;-83
2021/05/19 12:16:27;;;;;;;1.95;0.10;;;9.70;99.90;;;;;;4969336;28;20026;-84
2021/05/19 12:18:58;;;;;;;0.38;0.10;;;9.80;99.90;;;;;;4985670;28;20035;-83
2021/05/19 12:21:24;;;;;;;0.50;0.10;;;9.90;99.90;;;;;;4986482;28;20356;-82
2021/05/19 12:23:50;;;;;;;1.00;0.10;;;10.00;99.90;;;;;;4986709;28;20023;-81
2021/05/19 12:26:15;;;;;;;0.77;0.20;;;10.00;99.90;;;;;;4967893;28;20058;-82
2021/05/19 12:28:41;;;;;;;1.10;0.10;;;10.00;99.90;;;;;;4967393;29;20034;-83
2021/05/19 12:31:06;;;;;;;0.30;0.10;;;10.10;99.90;;;;;;4966120;29;20568;-84
2021/05/19 12:33:41;;;;;;;0.43;0.10;;;9.90;99.90;;;;;;4967155;29;20035;-83
2021/05/19 12:36:08;;;;;;;1.15;0.10;;;10.10;99.90;;;;;;4967161;28;20031;-84
2021/05/19 12:38:48;;;;;;;0.40;0.10;;;10.20;99.90;;;;;;4966086;29;20059;-84
2021/05/19 12:41:14;;;;;;;0.57;0.20;;;10.20;99.90;;;;;;4967310;28;20126;-85
2021/05/19 12:43:39;;;;;;;0.60;0.20;;;10.20;99.90;;;;;;4966574;28;20167;-83
2021/05/19 12:46:12;;;;;;;0.50;0.10;;;10.30;99.90;;;;;;4966028;29;20214;-84
2021/05/19 12:48:38;;;;;;;0.70;0.10;;;10.50;99.90;;;;;;4966026;29;20035;-82
2021/05/19 12:51:05;;;;;;;2.70;0.20;;;10.70;99.90;;;;;;4967032;28;20412;-83
2021/05/19 12:53:43;;;;;;;0.60;0.20;;;10.60;99.90;;;;;;4967169;28;20030;-83
2021/05/19 12:56:22;;;;;;;0.73;0.20;;;10.70;99.90;;;;;;4966933;28;20115;-83
2021/05/19 12:58:55;;;;;;;0.57;0.10;;;10.90;99.90;;;;;;4966916;28;20028;-84
2021/05/19 13:01:21;;;;;;;1.02;0.20;;;10.90;99.90;;;;;;4965765;29;20031;-84
2021/05/19 13:03:47;;;;;;;0.75;0.10;;;11.00;99.90;;;;;;4981908;28;20499;-83
2021/05/19 13:06:13;;;;;;;0.50;0.10;;;11.00;99.90;;;;;;4966723;28;20031;-82